sensor_id;sensor_type;location;lat;lon;timestamp;pressure;altitude;pressure_sealevel;temperature;humidity
10014;BME280;45684;48.358;10.746;2024-01-30T00:00:22;97603.78;;;-0.33;100.00
10014;BME280;45684;48.358;10.746;2024-01-30T00:02:50;97602.59;;;-0.37;100.00
10014;BME280;45684;48.358;10.746;2024-01-30T00:05:18;97607.50;;;-0.41;100.00
10014;BME280;45684;48.358;10.746;2024-01-30T00:07:48;97599.72;;;-0.42;100.00
10014;BME280;45684;48.358;10.746;2024-01-30T00:10:16;97600.75;;;-0.43;100.00
10014;BME280;45684;48.358;10.746;2024-01-30T00:12:44;97605.88;;;-0.42;100.00
10014;BME280;45684;48.358;10.746;2024-01-30T00:15:12;97604.03;;;-0.41;100.00
10014;BME280;45684;48.358;10.746;2024-01-30T00:17:40;97596.25;;;-0.43;100.00
10014;BME280;45684;48.358;10.746;2024-01-30T00:20:08;97600.34;;;-0.40;100.00
10014;BME280;45684;48.358;10.746;2024-01-30T00:22:37;97601.38;;;-0.41;100.00
10014;BME280;45684;48.358;10.746;2024-01-30T00:25:07;97598.09;;;-0.43;100.00
10014;BME280;45684;48.358;10.746;2024-01-30T00:27:36;97594.84;;;-0.45;100.00
10014;BME280;45684;48.358;10.746;2024-01-30T00:30:05;97599.34;;;-0.46;100.00
10014;BME280;45684;48.358;10.746;2024-01-30T00:32:33;97603.00;;;-0.47;100.00
10014;BME280;45684;48.358;10.746;2024-01-30T00:35:01;97599.97;;;-0.50;100.00
10014;BME280;45684;48.358;10.746;2024-01-30T00:37:29;97602.25;;;-0.54;100.00
10014;BME280;45684;48.358;10.746;2024-01-30T00:39:58;97600.81;;;-0.57;100.00
10014;BME280;45684;48.358;10.746;2024-01-30T00:42:27;97607.56;;;-0.61;100.00
10014;BME280;45684;48.358;10.746;2024-01-30T00:44:55;97613.31;;;-0.64;100.00
10014;BME280;45684;48.358;10.746;2024-01-30T00:47:23;97606.16;;;-0.63;100.00
10014;BME280;45684;48.358;10.746;2024-01-30T00:49:51;97604.91;;;-0.61;100.00
10014;BME280;45684;48.358;10.746;2024-01-30T00:52:19;97607.97;;;-0.57;100.00
10014;BME280;45684;48.358;10.746;2024-01-30T00:54:47;97607.78;;;-0.56;100.00
10014;BME280;45684;48.358;10.746;2024-01-30T00:57:15;97610.44;;;-0.56;100.00
10014;BME280;45684;48.358;10.746;2024-01-30T00:59:44;97607.78;;;-0.56;100.00
10014;BME280;45684;48.358;10.746;2024-01-30T01:02:12;97609.59;;;-0.56;100.00
10014;BME280;45684;48.358;10.746;2024-01-30T01:04:41;97610.63;;;-0.57;100.00
10014;BME280;45684;48.358;10.746;2024-01-30T01:07:09;97615.94;;;-0.57;100.00
10014;BME280;45684;48.358;10.746;2024-01-30T01:09:38;97623.09;;;-0.58;100.00
10014;BME280;45684;48.358;10.746;2024-01-30T01:12:06;97618.19;;;-0.54;100.00
10014;BME280;45684;48.358;10.746;2024-01-30T01:14:34;97621.25;;;-0.57;100.00
10014;BME280;45684;48.358;10.746;2024-01-30T01:17:04;97620.66;;;-0.59;100.00
10014;BME280;45684;48.358;10.746;2024-01-30T01:19:32;97619.22;;;-0.62;100.00
10014;BME280;45684;48.358;10.746;2024-01-30T01:22:00;97628.22;;;-0.63;100.00
10014;BME280;45684;48.358;10.746;2024-01-30T01:24:28;97624.97;;;-0.65;100.00
10014;BME280;45684;48.358;10.746;2024-01-30T01:26:56;97629.25;;;-0.64;100.00
10014;BME280;45684;48.358;10.746;2024-01-30T01:29:24;97629.25;;;-0.64;100.00
10014;BME280;45684;48.358;10.746;2024-01-30T01:31:55;97624.53;;;-0.62;100.00
10014;BME280;45684;48.358;10.746;2024-01-30T01:34:24;97619.22;;;-0.62;100.00
10014;BME280;45684;48.358;10.746;2024-01-30T01:36:56;97619.22;;;-0.62;100.00
10014;BME280;45684;48.358;10.746;2024-01-30T01:39:24;97615.97;;;-0.64;100.00
10014;BME280;45684;48.358;10.746;2024-01-30T01:41:52;97615.56;;;-0.67;100.00
10014;BME280;45684;48.358;10.746;2024-01-30T01:44:20;97623.31;;;-0.66;100.00
10014;BME280;45684;48.358;10.746;2024-01-30T01:46:48;97612.91;;;-0.67;100.00
10014;BME280;45684;48.358;10.746;2024-01-30T01:49:16;97614.97;;;-0.69;100.00
10014;BME280;45684;48.358;10.746;2024-01-30T01:51:48;97610.88;;;-0.72;100.00
10014;BME280;45684;48.358;10.746;2024-01-30T01:54:16;97616.19;;;-0.72;100.00
10014;BME280;45684;48.358;10.746;2024-01-30T01:56:44;97618.44;;;-0.75;100.00
10014;BME280;45684;48.358;10.746;2024-01-30T01:59:12;97609.66;;;-0.76;100.00
10014;BME280;45684;48.358;10.746;2024-01-30T02:01:41;97611.72;;;-0.78;100.00
10014;BME280;45684;48.358;10.746;2024-01-30T02:04:09;97609.88;;;-0.78;100.00
10014;BME280;45684;48.358;10.746;2024-01-30T02:06:38;97618.66;;;-0.77;100.00
10014;BME280;45684;48.358;10.746;2024-01-30T02:09:07;97609.66;;;-0.76;100.00
10014;BME280;45684;48.358;10.746;2024-01-30T02:11:36;97613.94;;;-0.75;100.00
10014;BME280;45684;48.358;10.746;2024-01-30T02:14:05;97614.97;;;-0.76;100.00
10014;BME280;45684;48.358;10.746;2024-01-30T02:16:32;97602.13;;;-0.79;100.00
10014;BME280;45684;48.358;10.746;2024-01-30T02:19:00;97611.09;;;-0.80;100.00
10014;BME280;45684;48.358;10.746;2024-01-30T02:21:30;97602.31;;;-0.81;100.00
10014;BME280;45684;48.358;10.746;2024-01-30T02:23:58;97608.44;;;-0.80;100.00
10014;BME280;45684;48.358;10.746;2024-01-30T02:26:27;97609.47;;;-0.81;100.00
10014;BME280;45684;48.358;10.746;2024-01-30T02:28:55;97603.34;;;-0.82;100.00
10014;BME280;45684;48.358;10.746;2024-01-30T02:31:24;97603.34;;;-0.82;100.00
10014;BME280;45684;48.358;10.746;2024-01-30T02:33:52;97601.31;;;-0.86;100.00
10014;BME280;45684;48.358;10.746;2024-01-30T02:36:20;97601.69;;;-0.89;100.00
10014;BME280;45684;48.358;10.746;2024-01-30T02:38:50;97610.09;;;-0.92;100.00
10014;BME280;45684;48.358;10.746;2024-01-30T02:41:18;97603.53;;;-0.90;100.00
10014;BME280;45684;48.358;10.746;2024-01-30T02:43:46;97598.88;;;-0.88;100.00
10014;BME280;45684;48.358;10.746;2024-01-30T02:46:13;97605.59;;;-0.85;100.00
10014;BME280;45684;48.358;10.746;2024-01-30T02:48:41;97598.66;;;-0.86;100.00
10014;BME280;45684;48.358;10.746;2024-01-30T02:51:09;97600.69;;;-0.88;100.00
10014;BME280;45684;48.358;10.746;2024-01-30T02:53:37;97596.22;;;-0.88;100.00
10014;BME280;45684;48.358;10.746;2024-01-30T02:56:07;97595.59;;;-0.90;100.00
10014;BME280;45684;48.358;10.746;2024-01-30T02:58:36;97587.44;;;-0.88;100.00
10014;BME280;45684;48.358;10.746;2024-01-30T03:01:04;97590.09;;;-0.88;100.00
10014;BME280;45684;48.358;10.746;2024-01-30T03:03:32;97585.59;;;-0.88;100.00
10014;BME280;45684;48.358;10.746;2024-01-30T03:06:02;97588.44;;;-0.89;100.00
10014;BME280;45684;48.358;10.746;2024-01-30T03:08:30;97580.28;;;-0.88;100.00
10014;BME280;45684;48.358;10.746;2024-01-30T03:10:57;97578.44;;;-0.87;100.00
10014;BME280;45684;48.358;10.746;2024-01-30T03:13:27;97577.41;;;-0.86;100.00
10014;BME280;45684;48.358;10.746;2024-01-30T03:15:55;97575.56;;;-0.86;100.00
10014;BME280;45684;48.358;10.746;2024-01-30T03:18:22;97576.81;;;-0.88;100.00
10014;BME280;45684;48.358;10.746;2024-01-30T03:20:50;97577.63;;;-0.88;100.00
10014;BME280;45684;48.358;10.746;2024-01-30T03:23:18;97571.50;;;-0.88;100.00
10014;BME280;45684;48.358;10.746;2024-01-30T03:25:46;97565.97;;;-0.93;100.00
10014;BME280;45684;48.358;10.746;2024-01-30T03:28:14;97569.47;;;-0.93;100.00
10014;BME280;45684;48.358;10.746;2024-01-30T03:30:44;97568.25;;;-0.97;100.00
10014;BME280;45684;48.358;10.746;2024-01-30T03:33:12;97568.84;;;-0.95;100.00
10014;BME280;45684;48.358;10.746;2024-01-30T03:35:40;97563.53;;;-0.95;100.00
10014;BME280;45684;48.358;10.746;2024-01-30T03:38:07;97572.94;;;-0.92;100.00
10014;BME280;45684;48.358;10.746;2024-01-30T03:40:35;97571.50;;;-0.88;100.00
10014;BME280;45684;48.358;10.746;2024-01-30T03:43:03;97573.13;;;-0.87;100.00
10014;BME280;45684;48.358;10.746;2024-01-30T03:45:31;97568.41;;;-0.85;100.00
10014;BME280;45684;48.358;10.746;2024-01-30T03:48:01;97575.34;;;-0.84;100.00
10014;BME280;45684;48.358;10.746;2024-01-30T03:50:28;97571.69;;;-0.83;100.00
10014;BME280;45684;48.358;10.746;2024-01-30T03:52:56;97575.34;;;-0.84;100.00
10014;BME280;45684;48.358;10.746;2024-01-30T03:55:24;97564.72;;;-0.84;100.00
10014;BME280;45684;48.358;10.746;2024-01-30T03:57:52;97570.88;;;-0.84;100.00
10014;BME280;45684;48.358;10.746;2024-01-30T04:00:20;97568.00;;;-0.82;100.00
10014;BME280;45684;48.358;10.746;2024-01-30T04:02:48;97571.06;;;-0.79;100.00
10014;BME280;45684;48.358;10.746;2024-01-30T04:05:19;97565.13;;;-0.74;100.00
10014;BME280;45684;48.358;10.746;2024-01-30T04:07:47;97574.72;;;-0.73;100.00
10014;BME280;45684;48.358;10.746;2024-01-30T04:10:14;97572.25;;;-0.68;100.00
10014;BME280;45684;48.358;10.746;2024-01-30T04:12:42;97573.28;;;-0.69;100.00
10014;BME280;45684;48.358;10.746;2024-01-30T04:15:11;97578.59;;;-0.69;100.00
10014;BME280;45684;48.358;10.746;2024-01-30T04:17:40;97578.38;;;-0.67;100.00
10014;BME280;45684;48.358;10.746;2024-01-30T04:20:09;97573.88;;;-0.67;100.00
10014;BME280;45684;48.358;10.746;2024-01-30T04:22:41;97572.25;;;-0.68;100.00
10014;BME280;45684;48.358;10.746;2024-01-30T04:25:09;97575.72;;;-0.67;100.00
10014;BME280;45684;48.358;10.746;2024-01-30T04:27:37;97573.06;;;-0.67;100.00
10014;BME280;45684;48.358;10.746;2024-01-30T04:30:06;97574.50;;;-0.65;100.00
10014;BME280;45684;48.358;10.746;2024-01-30T04:32:34;97570.59;;;-0.62;100.00
10014;BME280;45684;48.358;10.746;2024-01-30T04:35:03;97579.38;;;-0.62;100.00
10014;BME280;45684;48.358;10.746;2024-01-30T04:37:37;97573.88;;;-0.60;100.00
10014;BME280;45684;48.358;10.746;2024-01-30T04:40:07;97572.22;;;-0.61;100.00
10014;BME280;45684;48.358;10.746;2024-01-30T04:42:36;97576.13;;;-0.64;100.00
10014;BME280;45684;48.358;10.746;2024-01-30T04:45:05;97580.81;;;-0.66;100.00
10014;BME280;45684;48.358;10.746;2024-01-30T04:47:33;97581.84;;;-0.67;100.00
10014;BME280;45684;48.358;10.746;2024-01-30T04:50:01;97575.13;;;-0.69;100.00
10014;BME280;45684;48.358;10.746;2024-01-30T04:52:31;97581.66;;;-0.72;100.00
10014;BME280;45684;48.358;10.746;2024-01-30T04:54:59;97573.91;;;-0.73;100.00
10014;BME280;45684;48.358;10.746;2024-01-30T04:57:28;97571.66;;;-0.77;100.00
10014;BME280;45684;48.358;10.746;2024-01-30T04:59:57;97577.81;;;-0.83;100.00
10014;BME280;45684;48.358;10.746;2024-01-30T05:02:25;97575.78;;;-0.87;100.00
10014;BME280;45684;48.358;10.746;2024-01-30T05:04:53;97579.25;;;-0.87;100.00
10014;BME280;45684;48.358;10.746;2024-01-30T05:07:21;97580.06;;;-0.86;100.00
10014;BME280;45684;48.358;10.746;2024-01-30T05:09:49;97583.94;;;-0.89;100.00
10014;BME280;45684;48.358;10.746;2024-01-30T05:12:17;97580.69;;;-0.91;100.00
10014;BME280;45684;48.358;10.746;2024-01-30T05:14:46;97578.25;;;-0.92;100.00
10014;BME280;45684;48.358;10.746;2024-01-30T05:17:14;97581.91;;;-0.93;100.00
10014;BME280;45684;48.358;10.746;2024-01-30T05:19:43;97589.88;;;-0.93;100.00
10014;BME280;45684;48.358;10.746;2024-01-30T05:22:11;97579.25;;;-0.93;100.00
10014;BME280;45684;48.358;10.746;2024-01-30T05:24:42;97579.47;;;-0.95;100.00
10014;BME280;45684;48.358;10.746;2024-01-30T05:27:10;97589.28;;;-0.95;100.00
10014;BME280;45684;48.358;10.746;2024-01-30T05:29:39;97588.47;;;-0.96;100.00
10014;BME280;45684;48.358;10.746;2024-01-30T05:32:09;97589.88;;;-0.93;100.00
10014;BME280;45684;48.358;10.746;2024-01-30T05:34:37;97589.28;;;-0.95;100.00
10014;BME280;45684;48.358;10.746;2024-01-30T05:37:05;97592.97;;;-0.96;100.00
10014;BME280;45684;48.358;10.746;2024-01-30T05:39:33;97590.69;;;-0.99;100.00
10014;BME280;45684;48.358;10.746;2024-01-30T05:42:02;97596.00;;;-0.99;100.00
10014;BME280;45684;48.358;10.746;2024-01-30T05:44:30;97591.72;;;-1.00;100.00
10014;BME280;45684;48.358;10.746;2024-01-30T05:46:58;97595.00;;;-1.05;100.00
10014;BME280;45684;48.358;10.746;2024-01-30T05:49:27;97599.09;;;-1.02;100.00
10014;BME280;45684;48.358;10.746;2024-01-30T05:51:55;97602.56;;;-1.02;100.00
10014;BME280;45684;48.358;10.746;2024-01-30T05:54:23;97605.00;;;-1.00;100.00
10014;BME280;45684;48.358;10.746;2024-01-30T05:56:51;97596.22;;;-1.01;100.00
10014;BME280;45684;48.358;10.746;2024-01-30T05:59:19;97606.03;;;-1.01;100.00
10014;BME280;45684;48.358;10.746;2024-01-30T06:01:47;97617.47;;;-1.01;100.00
10014;BME280;45684;48.358;10.746;2024-01-30T06:04:15;97605.41;;;-1.04;100.00
10014;BME280;45684;48.358;10.746;2024-01-30T06:06:45;97597.06;;;-1.07;100.00
10014;BME280;45684;48.358;10.746;2024-01-30T06:09:13;97609.50;;;-1.08;100.00
10014;BME280;45684;48.358;10.746;2024-01-30T06:11:41;97605.22;;;-1.09;100.00
10014;BME280;45684;48.358;10.746;2024-01-30T06:14:09;97614.22;;;-1.10;100.00
10014;BME280;45684;48.358;10.746;2024-01-30T06:16:37;97612.16;;;-1.14;100.00
10014;BME280;45684;48.358;10.746;2024-01-30T06:19:04;97602.38;;;-1.14;100.00
10014;BME280;45684;48.358;10.746;2024-01-30T06:21:33;97607.66;;;-1.14;100.00
10014;BME280;45684;48.358;10.746;2024-01-30T06:24:05;97604.00;;;-1.13;100.00
10014;BME280;45684;48.358;10.746;2024-01-30T06:26:34;97613.59;;;-1.12;100.00
10014;BME280;45684;48.358;10.746;2024-01-30T06:29:01;97601.34;;;-1.13;100.00
10014;BME280;45684;48.358;10.746;2024-01-30T06:31:29;97607.28;;;-1.11;100.00
10014;BME280;45684;48.358;10.746;2024-01-30T06:33:57;97602.16;;;-1.12;100.00
10014;BME280;45684;48.358;10.746;2024-01-30T06:36:25;97606.47;;;-1.11;100.00
10014;BME280;45684;48.358;10.746;2024-01-30T06:38:53;97600.34;;;-1.12;100.00
10014;BME280;45684;48.358;10.746;2024-01-30T06:41:22;97603.00;;;-1.12;100.00
10014;BME280;45684;48.358;10.746;2024-01-30T06:43:50;97605.44;;;-1.10;100.00
10014;BME280;45684;48.358;10.746;2024-01-30T06:46:18;97603.59;;;-1.10;100.00
10014;BME280;45684;48.358;10.746;2024-01-30T06:48:46;97599.91;;;-1.09;100.00
10014;BME280;45684;48.358;10.746;2024-01-30T06:51:14;97612.16;;;-1.08;100.00
10014;BME280;45684;48.358;10.746;2024-01-30T06:53:44;97603.38;;;-1.08;100.00
10014;BME280;45684;48.358;10.746;2024-01-30T06:56:11;97611.16;;;-1.07;100.00
10014;BME280;45684;48.358;10.746;2024-01-30T06:58:41;97610.34;;;-1.07;100.00
10014;BME280;45684;48.358;10.746;2024-01-30T07:01:09;97608.69;;;-1.08;100.00
10014;BME280;45684;48.358;10.746;2024-01-30T07:03:37;97616.47;;;-1.07;100.00
10014;BME280;45684;48.358;10.746;2024-01-30T07:06:05;97616.66;;;-1.01;100.00
10014;BME280;45684;48.358;10.746;2024-01-30T07:08:33;97613.56;;;-0.98;100.00
10014;BME280;45684;48.358;10.746;2024-01-30T07:11:01;97612.13;;;-0.94;100.00
10014;BME280;45684;48.358;10.746;2024-01-30T07:13:29;97615.19;;;-0.91;100.00
10014;BME280;45684;48.358;10.746;2024-01-30T07:15:58;97624.97;;;-0.85;100.00
10014;BME280;45684;48.358;10.746;2024-01-30T07:18:26;97611.09;;;-0.80;100.00
10014;BME280;45684;48.358;10.746;2024-01-30T07:20:54;97628.66;;;-0.72;100.00
10014;BME280;45684;48.358;10.746;2024-01-30T07:23:22;97609.66;;;-0.69;100.00
10014;BME280;45684;48.358;10.746;2024-01-30T07:25:50;97620.66;;;-0.66;100.00
10014;BME280;45684;48.358;10.746;2024-01-30T07:28:18;97626.16;;;-0.61;100.00
10014;BME280;45684;48.358;10.746;2024-01-30T07:30:46;97620.22;;;-0.56;100.00
10014;BME280;45684;48.358;10.746;2024-01-30T07:33:17;97635.75;;;-0.46;100.00
10014;BME280;45684;48.358;10.746;2024-01-30T07:35:45;97637.13;;;-0.37;100.00
10014;BME280;45684;48.358;10.746;2024-01-30T07:38:13;97642.63;;;-0.32;100.00
10014;BME280;45684;48.358;10.746;2024-01-30T07:40:41;97636.88;;;-0.22;100.00
10014;BME280;45684;48.358;10.746;2024-01-30T07:43:09;97636.44;;;-0.13;100.00
10014;BME280;45684;48.358;10.746;2024-01-30T07:45:37;97639.25;;;-0.08;100.00
10014;BME280;45684;48.358;10.746;2024-01-30T07:48:06;97651.50;;;0.00;100.00
10014;BME280;45684;48.358;10.746;2024-01-30T07:50:35;97644.94;;;0.03;100.00
10014;BME280;45684;48.358;10.746;2024-01-30T07:53:03;97642.03;;;0.11;100.00
10014;BME280;45684;48.358;10.746;2024-01-30T07:55:32;97646.66;;;0.22;100.00
10014;BME280;45684;48.358;10.746;2024-01-30T07:58:00;97648.50;;;0.28;100.00
10014;BME280;45684;48.358;10.746;2024-01-30T08:00:27;97641.66;;;0.39;100.00
10014;BME280;45684;48.358;10.746;2024-01-30T08:02:56;97654.50;;;0.48;100.00
10014;BME280;45684;48.358;10.746;2024-01-30T08:05:25;97649.91;;;0.62;100.00
10014;BME280;45684;48.358;10.746;2024-01-30T08:07:55;97657.41;;;0.72;100.00
10014;BME280;45684;48.358;10.746;2024-01-30T08:10:23;97651.16;;;0.85;100.00
10014;BME280;45684;48.358;10.746;2024-01-30T08:12:51;97644.69;;;0.99;100.00
10014;BME280;45684;48.358;10.746;2024-01-30T08:15:19;97651.72;;;1.12;100.00
10014;BME280;45684;48.358;10.746;2024-01-30T08:17:46;97652.88;;;1.22;100.00
10014;BME280;45684;48.358;10.746;2024-01-30T08:20:15;97651.78;;;1.30;100.00
10014;BME280;45684;48.358;10.746;2024-01-30T08:22:43;97651.50;;;1.38;100.00
10014;BME280;45684;48.358;10.746;2024-01-30T08:25:12;97651.22;;;1.46;100.00
10014;BME280;45684;48.358;10.746;2024-01-30T08:27:40;97651.94;;;1.53;100.00
10014;BME280;45684;48.358;10.746;2024-01-30T08:30:09;97645.75;;;1.60;100.00
10014;BME280;45684;48.358;10.746;2024-01-30T08:32:37;97655.06;;;1.69;100.00
10014;BME280;45684;48.358;10.746;2024-01-30T08:35:05;97656.63;;;1.76;100.00
10014;BME280;45684;48.358;10.746;2024-01-30T08:37:33;97664.69;;;1.88;100.00
10014;BME280;45684;48.358;10.746;2024-01-30T08:40:02;97663.94;;;1.99;100.00
10014;BME280;45684;48.358;10.746;2024-01-30T08:42:32;97663.19;;;2.11;100.00
10014;BME280;45684;48.358;10.746;2024-01-30T08:45:00;97657.31;;;2.20;100.00
10014;BME280;45684;48.358;10.746;2024-01-30T08:47:28;97660.03;;;2.32;100.00
10014;BME280;45684;48.358;10.746;2024-01-30T08:49:56;97652.44;;;2.47;100.00
10014;BME280;45684;48.358;10.746;2024-01-30T08:52:24;97651.53;;;2.53;100.00
10014;BME280;45684;48.358;10.746;2024-01-30T08:54:53;97648.53;;;2.62;100.00
10014;BME280;45684;48.358;10.746;2024-01-30T08:57:21;97648.78;;;2.72;100.00
10014;BME280;45684;48.358;10.746;2024-01-30T08:59:50;97647.78;;;2.85;100.00
10014;BME280;45684;48.358;10.746;2024-01-30T09:02:20;97646.72;;;2.97;100.00
10014;BME280;45684;48.358;10.746;2024-01-30T09:04:48;97656.16;;;3.12;100.00
10014;BME280;45684;48.358;10.746;2024-01-30T09:07:16;97644.66;;;3.23;100.00
10014;BME280;45684;48.358;10.746;2024-01-30T09:09:44;97640.34;;;3.33;100.00
10014;BME280;45684;48.358;10.746;2024-01-30T09:12:12;97648.03;;;3.42;100.00
10014;BME280;45684;48.358;10.746;2024-01-30T09:14:41;97650.47;;;3.55;100.00
10014;BME280;45684;48.358;10.746;2024-01-30T09:17:10;97654.41;;;3.64;100.00
10014;BME280;45684;48.358;10.746;2024-01-30T09:19:38;97646.44;;;3.81;100.00
10014;BME280;45684;48.358;10.746;2024-01-30T09:22:06;97651.31;;;3.96;100.00
10014;BME280;45684;48.358;10.746;2024-01-30T09:24:34;97654.63;;;4.15;100.00
10014;BME280;45684;48.358;10.746;2024-01-30T09:27:02;97647.38;;;4.27;100.00
10014;BME280;45684;48.358;10.746;2024-01-30T09:29:30;97654.41;;;4.45;100.00
10014;BME280;45684;48.358;10.746;2024-01-30T09:32:00;97649.31;;;4.60;100.00
10014;BME280;45684;48.358;10.746;2024-01-30T09:34:30;97650.41;;;4.76;100.00
10014;BME280;45684;48.358;10.746;2024-01-30T09:36:58;97642.38;;;4.93;100.00
10014;BME280;45684;48.358;10.746;2024-01-30T09:39:26;97644.00;;;5.10;100.00
10014;BME280;45684;48.358;10.746;2024-01-30T09:41:59;97647.72;;;5.26;100.00
10014;BME280;45684;48.358;10.746;2024-01-30T09:44:29;97645.56;;;5.45;100.00
10014;BME280;45684;48.358;10.746;2024-01-30T09:46:57;97653.88;;;5.60;100.00
10014;BME280;45684;48.358;10.746;2024-01-30T09:49:32;97650.09;;;5.78;100.00
10014;BME280;45684;48.358;10.746;2024-01-30T09:52:01;97647.44;;;6.00;100.00
10014;BME280;45684;48.358;10.746;2024-01-30T09:54:30;97650.38;;;6.21;100.00
10014;BME280;45684;48.358;10.746;2024-01-30T09:57:03;97651.66;;;6.40;100.00
10014;BME280;45684;48.358;10.746;2024-01-30T09:59:31;97650.25;;;6.59;100.00
10014;BME280;45684;48.358;10.746;2024-01-30T10:01:59;97648.81;;;6.79;100.00
10014;BME280;45684;48.358;10.746;2024-01-30T10:04:27;97652.97;;;6.92;100.00
10014;BME280;45684;48.358;10.746;2024-01-30T10:06:57;97645.72;;;6.92;100.00
10014;BME280;45684;48.358;10.746;2024-01-30T10:09:25;97650.59;;;6.95;100.00
10014;BME280;45684;48.358;10.746;2024-01-30T10:11:54;97645.41;;;7.21;100.00
10014;BME280;45684;48.358;10.746;2024-01-30T10:14:21;97639.69;;;7.54;100.00
10014;BME280;45684;48.358;10.746;2024-01-30T10:16:49;97640.97;;;7.84;100.00
10014;BME280;45684;48.358;10.746;2024-01-30T10:19:17;97631.09;;;8.10;100.00
10014;BME280;45684;48.358;10.746;2024-01-30T10:21:46;97638.41;;;8.19;100.00
10014;BME280;45684;48.358;10.746;2024-01-30T10:24:16;97631.44;;;8.34;100.00
10014;BME280;45684;48.358;10.746;2024-01-30T10:26:44;97637.38;;;8.36;100.00
10014;BME280;45684;48.358;10.746;2024-01-30T10:29:12;97628.50;;;8.35;100.00
10014;BME280;45684;48.358;10.746;2024-01-30T10:31:40;97634.22;;;8.44;100.00
10014;BME280;45684;48.358;10.746;2024-01-30T10:34:08;97629.66;;;8.50;100.00
10014;BME280;45684;48.358;10.746;2024-01-30T10:36:50;97627.75;;;8.60;100.00
10014;BME280;45684;48.358;10.746;2024-01-30T10:39:21;97629.94;;;8.63;100.00
10014;BME280;45684;48.358;10.746;2024-01-30T10:41:52;97619.69;;;8.76;100.00
10014;BME280;45684;48.358;10.746;2024-01-30T10:44:23;97620.53;;;8.91;100.00
10014;BME280;45684;48.358;10.746;2024-01-30T10:46:58;97620.81;;;9.05;100.00
10014;BME280;45684;48.358;10.746;2024-01-30T10:49:28;97611.59;;;9.22;100.00
10014;BME280;45684;48.358;10.746;2024-01-30T10:51:57;97614.28;;;9.32;100.00
10014;BME280;45684;48.358;10.746;2024-01-30T10:54:27;97605.63;;;9.50;100.00
10014;BME280;45684;48.358;10.746;2024-01-30T10:56:57;97603.13;;;9.74;100.00
10014;BME280;45684;48.358;10.746;2024-01-30T10:59:28;97607.66;;;9.94;100.00
10014;BME280;45684;48.358;10.746;2024-01-30T11:01:57;97603.81;;;10.10;100.00
10014;BME280;45684;48.358;10.746;2024-01-30T11:04:26;97610.78;;;10.21;100.00
10014;BME280;45684;48.358;10.746;2024-01-30T11:06:54;97610.78;;;10.32;100.00
10014;BME280;45684;48.358;10.746;2024-01-30T11:09:22;97605.59;;;10.40;100.00
10014;BME280;45684;48.358;10.746;2024-01-30T11:11:56;97614.19;;;10.47;100.00
10014;BME280;45684;48.358;10.746;2024-01-30T11:14:27;97609.84;;;10.52;100.00
10014;BME280;45684;48.358;10.746;2024-01-30T11:16:57;97603.34;;;10.53;100.00
10014;BME280;45684;48.358;10.746;2024-01-30T11:19:26;97607.69;;;10.48;100.00
10014;BME280;45684;48.358;10.746;2024-01-30T11:21:55;97598.53;;;10.44;100.00
10014;BME280;45684;48.358;10.746;2024-01-30T11:24:24;97601.50;;;10.43;100.00
10014;BME280;45684;48.358;10.746;2024-01-30T11:26:57;97591.78;;;10.42;100.00
10014;BME280;45684;48.358;10.746;2024-01-30T11:29:27;97599.88;;;10.42;100.00
10014;BME280;45684;48.358;10.746;2024-01-30T11:31:55;97600.38;;;10.49;100.00
10014;BME280;45684;48.358;10.746;2024-01-30T11:34:24;97600.94;;;10.46;99.57
10014;BME280;45684;48.358;10.746;2024-01-30T11:36:56;97599.06;;;10.46;100.00
10014;BME280;45684;48.358;10.746;2024-01-30T11:39:26;97589.06;;;10.42;100.00
10014;BME280;45684;48.358;10.746;2024-01-30T11:41:54;97590.38;;;10.50;100.00
10014;BME280;45684;48.358;10.746;2024-01-30T11:44:24;97594.91;;;10.59;100.00
10014;BME280;45684;48.358;10.746;2024-01-30T11:46:52;97595.44;;;10.61;100.00
10014;BME280;45684;48.358;10.746;2024-01-30T11:49:20;97584.53;;;10.71;99.95
10014;BME280;45684;48.358;10.746;2024-01-30T11:51:48;97575.63;;;10.71;97.88
10014;BME280;45684;48.358;10.746;2024-01-30T11:54:16;97585.84;;;10.79;93.90
10014;BME280;45684;48.358;10.746;2024-01-30T11:56:44;97589.31;;;10.85;90.23
10014;BME280;45684;48.358;10.746;2024-01-30T11:59:13;97579.28;;;10.85;87.20
10014;BME280;45684;48.358;10.746;2024-01-30T12:01:43;97576.53;;;10.90;87.83
10014;BME280;45684;48.358;10.746;2024-01-30T12:04:11;97575.44;;;10.96;85.54
10014;BME280;45684;48.358;10.746;2024-01-30T12:06:39;97575.38;;;11.02;87.65
10014;BME280;45684;48.358;10.746;2024-01-30T12:09:09;97588.69;;;10.98;90.44
10014;BME280;45684;48.358;10.746;2024-01-30T12:11:46;97578.09;;;11.02;91.15
10014;BME280;45684;48.358;10.746;2024-01-30T12:14:14;97573.53;;;10.97;91.86
10014;BME280;45684;48.358;10.746;2024-01-30T12:16:48;97576.75;;;10.99;92.03
10014;BME280;45684;48.358;10.746;2024-01-30T12:19:21;97568.81;;;11.08;91.01
10014;BME280;45684;48.358;10.746;2024-01-30T12:21:54;97568.88;;;11.03;92.93
10014;BME280;45684;48.358;10.746;2024-01-30T12:24:23;97574.34;;;10.97;92.86
10014;BME280;45684;48.358;10.746;2024-01-30T12:26:51;97569.38;;;11.05;93.48
10014;BME280;45684;48.358;10.746;2024-01-30T12:29:20;97574.28;;;11.03;91.23
10014;BME280;45684;48.358;10.746;2024-01-30T12:31:52;97574.50;;;11.11;91.06
10014;BME280;45684;48.358;10.746;2024-01-30T12:34:21;97561.72;;;11.17;91.62
10014;BME280;45684;48.358;10.746;2024-01-30T12:36:49;97556.94;;;11.33;88.47
10014;BME280;45684;48.358;10.746;2024-01-30T12:39:17;97558.91;;;11.51;88.39
10014;BME280;45684;48.358;10.746;2024-01-30T12:41:45;97556.00;;;11.71;86.65
10014;BME280;45684;48.358;10.746;2024-01-30T12:44:14;97552.13;;;11.78;82.49
10014;BME280;45684;48.358;10.746;2024-01-30T12:46:42;97551.69;;;11.94;79.63
10014;BME280;45684;48.358;10.746;2024-01-30T12:49:13;97549.31;;;11.88;81.30